createdAt,value
2022-10-03T00:00:00.307Z,3.9
2022-10-03T00:05:00.246Z,3.2
2022-10-03T00:10:00.285Z,2.3
2022-10-03T00:15:00.259Z,4.4
2022-10-03T00:20:00.271Z,2.5
2022-10-03T00:25:00.333Z,4.4
2022-10-03T00:30:00.302Z,4.1
2022-10-03T00:35:00.244Z,4.3
2022-10-03T00:40:00.311Z,3.6
2022-10-03T00:45:00.290Z,5.9
2022-10-03T00:50:00.273Z,4.5
2022-10-03T00:55:00.371Z,6.5
2022-10-03T01:00:00.285Z,6.5
2022-10-03T01:05:00.238Z,3.7
2022-10-03T01:10:00.384Z,5.4
2022-10-03T01:15:00.246Z,5.7
2022-10-03T01:20:00.299Z,3.8
2022-10-03T01:25:00.239Z,3.3
2022-10-03T01:30:00.288Z,6.9
2022-10-03T01:35:00.266Z,5.2
2022-10-03T01:40:00.275Z,2.7
2022-10-03T01:45:00.259Z,4.6
2022-10-03T01:50:00.479Z,4.3
2022-10-03T01:55:00.270Z,3.5
2022-10-03T02:00:00.307Z,4.2
2022-10-03T02:05:00.523Z,5.5
2022-10-03T02:10:00.263Z,4.9
2022-10-03T02:15:00.411Z,4.4
2022-10-03T02:20:00.256Z,4.5
2022-10-03T02:25:00.243Z,7.2
2022-10-03T02:30:00.298Z,5.6
2022-10-03T02:35:00.262Z,2.4
2022-10-03T02:40:00.310Z,6.4
2022-10-03T02:45:00.284Z,3.8
2022-10-03T02:50:00.386Z,2.5
2022-10-03T02:55:00.299Z,5.7
2022-10-03T03:00:00.317Z,5.2
2022-10-03T03:05:00.283Z,4.1
2022-10-03T03:10:00.333Z,3.9
2022-10-03T03:15:00.326Z,3.1
2022-10-03T03:20:00.330Z,4.5
2022-10-03T03:25:00.302Z,5.6
2022-10-03T03:30:00.348Z,3.8
2022-10-03T03:35:00.287Z,4.3
2022-10-03T03:40:00.305Z,5.9
2022-10-03T03:45:00.303Z,6.1
2022-10-03T03:50:00.347Z,6.8
2022-10-03T03:55:00.362Z,4.2
2022-10-03T04:00:00.348Z,4.0
2022-10-03T04:05:00.337Z,6.0
2022-10-03T04:10:00.340Z,4.4
2022-10-03T04:15:00.330Z,4.7
2022-10-03T04:20:00.339Z,3.1
2022-10-03T04:25:00.271Z,4.7
2022-10-03T04:30:00.359Z,4.3
2022-10-03T04:35:00.306Z,3.4
2022-10-03T04:40:00.380Z,4.0
2022-10-03T04:45:00.297Z,3.9
2022-10-03T04:50:00.344Z,4.5
2022-10-03T04:55:00.312Z,4.5
2022-10-03T05:00:00.372Z,3.4
2022-10-03T05:05:00.321Z,3.7
2022-10-03T05:10:05.986Z,2.1
2022-10-03T05:15:00.487Z,3.9
2022-10-03T05:20:00.283Z,5.5
2022-10-03T05:25:00.269Z,4.9
2022-10-03T05:30:00.363Z,3.8
2022-10-03T05:35:00.272Z,4.9
2022-10-03T05:40:00.292Z,5.6
2022-10-03T05:45:00.276Z,3.1
2022-10-03T05:50:00.272Z,4.9
2022-10-03T05:55:00.260Z,6.5
2022-10-03T06:00:00.289Z,6.3
2022-10-03T06:05:00.293Z,3.4
2022-10-03T06:10:00.377Z,5.5
2022-10-03T06:15:00.259Z,6.1
2022-10-03T06:20:00.293Z,5.1
2022-10-03T06:25:00.350Z,3.3
2022-10-03T06:30:00.285Z,5.4
2022-10-03T06:35:00.288Z,5.7
2022-10-03T06:40:00.337Z,6.1
2022-10-03T06:45:00.299Z,4.6
2022-10-03T06:50:00.281Z,6.5
2022-10-03T06:55:00.246Z,4.2
2022-10-03T07:00:00.326Z,6.0
2022-10-03T07:05:00.280Z,2.9
2022-10-03T07:10:00.296Z,4.6
2022-10-03T07:15:00.346Z,3.9
2022-10-03T07:20:00.301Z,7.9
2022-10-03T07:25:00.278Z,7.1
2022-10-03T07:30:00.287Z,6.7
2022-10-03T07:35:00.368Z,7.9
2022-10-03T07:40:00.273Z,5.9
2022-10-03T07:45:00.264Z,4.5
2022-10-03T07:50:00.293Z,7.0
2022-10-03T07:55:00.440Z,6.4
2022-10-03T08:00:00.330Z,5.9
2022-10-03T08:05:00.279Z,5.6
2022-10-03T08:10:00.308Z,7.1
2022-10-03T08:15:00.287Z,8.7
2022-10-03T08:20:00.257Z,7.4
2022-10-03T08:25:03.348Z,6.0
2022-10-03T08:30:00.326Z,6.6
2022-10-03T08:35:00.306Z,5.6
2022-10-03T08:40:00.286Z,5.9
2022-10-03T08:45:00.302Z,2.7
2022-10-03T08:50:05.639Z,7.4
2022-10-03T08:55:00.262Z,6.3
2022-10-03T09:00:00.293Z,7.7
2022-10-03T09:05:00.276Z,7.4
2022-10-03T09:10:00.311Z,5.9
2022-10-03T09:15:00.332Z,6.3
2022-10-03T09:20:00.274Z,6.4
2022-10-03T09:25:00.304Z,7.1
2022-10-03T09:30:00.284Z,5.8
2022-10-03T09:35:06.949Z,7.6
2022-10-03T09:40:00.293Z,7.0
2022-10-03T09:45:00.426Z,6.4
2022-10-03T09:50:00.270Z,5.2
2022-10-03T09:55:00.271Z,5.6
2022-10-03T10:00:00.324Z,4.7
2022-10-03T10:05:00.405Z,8.3
2022-10-03T10:10:00.320Z,4.7
2022-10-03T10:15:00.251Z,5.7
2022-10-03T10:20:00.296Z,7.5
2022-10-03T10:25:00.284Z,8.2
2022-10-03T10:30:00.305Z,7.6
2022-10-03T10:35:00.262Z,6.3
2022-10-03T10:40:00.302Z,6.8
2022-10-03T10:45:00.284Z,7.8
2022-10-03T10:50:00.316Z,5.5
2022-10-03T10:55:00.279Z,7.6
2022-10-03T11:00:00.317Z,5.8
2022-10-03T11:05:00.419Z,6.4
2022-10-03T11:10:00.265Z,6.6
2022-10-03T11:15:00.280Z,7.2
2022-10-03T11:20:00.286Z,9.6
2022-10-03T11:25:00.260Z,5.3
2022-10-03T11:30:00.375Z,9.9
2022-10-03T11:35:00.269Z,8.2
2022-10-03T11:40:00.335Z,5.2
2022-10-03T11:45:00.278Z,6.1
2022-10-03T11:50:00.276Z,5.6
2022-10-03T11:55:00.242Z,7.0
2022-10-03T12:00:00.320Z,7.2
2022-10-03T12:05:00.299Z,6.8
2022-10-03T12:10:00.289Z,7.2
2022-10-03T12:15:00.266Z,6.3
2022-10-03T12:20:00.274Z,6.2
2022-10-03T12:25:00.232Z,6.0
2022-10-03T12:30:00.296Z,3.7
2022-10-03T12:35:00.270Z,7.2
2022-10-03T12:40:00.300Z,7.4
2022-10-03T12:45:00.283Z,6.6
2022-10-03T12:50:00.266Z,7.6
2022-10-03T12:55:00.242Z,6.9
2022-10-03T13:00:00.306Z,7.5
2022-10-03T13:05:00.261Z,7.2
2022-10-03T13:10:00.273Z,7.1
2022-10-03T13:15:00.278Z,6.5
2022-10-03T13:20:00.271Z,7.1
2022-10-03T13:25:00.245Z,9.1
2022-10-03T13:30:00.323Z,10.4
2022-10-03T13:35:00.244Z,7.2
2022-10-03T13:40:00.300Z,7.6
2022-10-03T13:45:00.265Z,4.9
2022-10-03T13:50:00.294Z,6.9
2022-10-03T13:55:00.275Z,9.6
2022-10-03T14:00:00.338Z,2.8
2022-10-03T14:05:00.276Z,5.1
2022-10-03T14:10:00.287Z,6.2
2022-10-03T14:15:00.308Z,7.0
2022-10-03T14:20:00.289Z,8.8
2022-10-03T14:25:00.287Z,6.5
2022-10-03T14:30:00.325Z,7.8
2022-10-03T14:35:00.292Z,5.0
2022-10-03T14:40:00.332Z,2.8
2022-10-03T14:45:00.288Z,3.4
2022-10-03T14:50:00.439Z,4.0
2022-10-03T14:55:00.250Z,3.2
2022-10-03T15:00:00.325Z,2.9
2022-10-03T15:05:00.324Z,2.0
2022-10-03T15:10:00.283Z,2.3
2022-10-03T15:15:00.305Z,4.1
2022-10-03T15:20:00.286Z,2.9
2022-10-03T15:25:00.254Z,1.0
2022-10-03T15:30:00.321Z,2.7
2022-10-03T15:35:00.263Z,4.4
2022-10-03T15:40:00.304Z,3.5
2022-10-03T15:45:00.276Z,3.7
2022-10-03T15:50:00.284Z,3.5
2022-10-03T16:00:03.878Z,2.9
2022-10-03T16:05:00.256Z,1.5
2022-10-03T16:10:00.273Z,0.3
2022-10-03T16:15:00.288Z,1.0
2022-10-03T16:20:00.273Z,1.0
2022-10-03T16:25:00.290Z,2.8
2022-10-03T16:30:00.480Z,3.6
2022-10-03T16:35:00.281Z,3.3
2022-10-03T16:40:00.323Z,2.9
2022-10-03T16:45:00.286Z,4.1
2022-10-03T16:50:00.302Z,3.0
2022-10-03T16:55:00.267Z,2.4
2022-10-03T17:00:00.308Z,3.7
2022-10-03T17:05:00.242Z,2.5
2022-10-03T17:10:00.309Z,2.3
2022-10-03T17:15:00.339Z,3.0
2022-10-03T17:20:00.530Z,3.8
2022-10-03T17:25:00.255Z,2.9
2022-10-03T17:30:00.418Z,2.1
2022-10-03T17:35:00.295Z,1.8
2022-10-03T17:40:00.481Z,3.5
2022-10-03T17:45:00.289Z,4.0
2022-10-03T17:50:00.289Z,1.7
2022-10-03T17:55:00.292Z,4.0
2022-10-03T18:00:00.417Z,3.9
2022-10-03T18:05:00.292Z,3.1
2022-10-03T18:10:00.326Z,3.0
2022-10-03T18:15:00.359Z,1.0
2022-10-03T18:20:00.281Z,2.2
2022-10-03T18:25:00.391Z,1.3
2022-10-03T18:30:00.346Z,0.7
2022-10-03T18:35:00.271Z,1.3
2022-10-03T18:45:00.365Z,1.6
2022-10-03T18:50:00.327Z,0.9
2022-10-03T18:55:00.322Z,1.3
2022-10-03T19:00:00.321Z,0.8
2022-10-03T19:05:00.769Z,1.5
2022-10-03T19:10:00.285Z,0.5
2022-10-03T19:15:00.270Z,1.0
2022-10-03T19:20:00.321Z,1.3
2022-10-03T19:25:00.779Z,1.1
2022-10-03T19:30:01.381Z,0.9
2022-10-03T19:35:01.534Z,0.4
2022-10-03T19:40:00.310Z,1.8
2022-10-03T19:45:00.286Z,1.1
2022-10-03T19:50:00.526Z,2.0
2022-10-03T19:55:00.249Z,2.2
2022-10-03T20:00:00.289Z,2.0
2022-10-03T20:05:00.280Z,1.2
2022-10-03T20:10:00.295Z,0.9
2022-10-03T20:15:00.261Z,1.9
2022-10-03T20:20:00.286Z,1.9
2022-10-03T20:25:00.240Z,2.7
2022-10-03T20:30:00.280Z,3.7
2022-10-03T20:35:00.365Z,3.8
2022-10-03T20:40:00.271Z,2.6
2022-10-03T20:45:00.300Z,2.8
2022-10-03T20:50:00.244Z,4.1
2022-10-03T20:55:00.237Z,3.6
2022-10-03T21:00:00.310Z,5.2
2022-10-03T21:05:00.264Z,2.8
2022-10-03T21:10:00.297Z,3.1
2022-10-03T21:15:00.254Z,3.6
2022-10-03T21:20:00.267Z,2.3
2022-10-03T21:25:00.293Z,2.3
2022-10-03T21:30:00.330Z,4.3
2022-10-03T21:35:00.255Z,5.0
2022-10-03T21:40:00.277Z,3.2
2022-10-03T21:45:00.278Z,3.9
2022-10-03T21:50:00.284Z,2.9
2022-10-03T21:55:00.264Z,3.3
2022-10-03T22:00:00.383Z,3.1
2022-10-03T22:05:00.270Z,3.8
2022-10-03T22:10:00.275Z,3.4
2022-10-03T22:15:00.265Z,2.8
2022-10-03T22:20:00.267Z,3.8
2022-10-03T22:25:00.276Z,3.5
2022-10-03T22:30:00.313Z,3.4
2022-10-03T22:35:00.254Z,4.0
2022-10-03T22:40:00.278Z,2.1
2022-10-03T22:45:00.263Z,3.1
2022-10-03T22:50:00.293Z,4.1
2022-10-03T22:55:00.239Z,3.1
2022-10-03T23:00:00.318Z,2.9
2022-10-03T23:05:00.258Z,4.1
2022-10-03T23:10:00.290Z,3.7
2022-10-03T23:15:00.353Z,1.6
2022-10-03T23:20:00.346Z,1.3
2022-10-03T23:25:00.267Z,0.9
2022-10-03T23:30:00.378Z,1.9
2022-10-03T23:35:00.249Z,3.0
2022-10-03T23:40:00.286Z,3.0
2022-10-03T23:45:00.250Z,2.3
2022-10-03T23:50:00.273Z,2.9
2022-10-03T23:55:00.247Z,2.5
